HOURLY OBS INDEX

062

Central Tablelands - north

MUDGEE AIRPORT AWS

Site: 062101
Alt: 471.0m
4km NE of MUDGEE


  Time     Wind        Temp  DP   Baro     Rain since   Rain past  Vis(m), Cloud(base in m), Weather
  local        km/h                         9am  last   hr   10m    
Thu 18:00   SE 13/ 20  29.5  4.9  1013.7    0.0   0.0   0.0   0.0   10000 
Thu 18:30  SSE 17/ 24  28.9  5.7  1013.8    0.0   0.0   0.0   0.0   10000 
Thu 19:00  SSE 15/ 24  28.2  8.5  1014.0    0.0   0.0   0.0   0.0   10000 
Thu 19:30  ESE 15/ 26  27.1  8.5  1014.4    0.0   0.0   0.0   0.0   10000 
Thu 20:30  ESE 11/ 17  24.6  9.0  1015.4    0.0   0.0   0.0   0.0   10000 
Thu 21:00  ESE 11/ 17  24.2  9.4  1015.6    0.0   0.0  ----   0.0   10000 
Thu 21:30   SE  7/ 13  23.9  9.5  1015.9    0.0   0.0   0.0   0.0   10000 
Thu 22:00    S  9/ 13  22.7  9.5  1016.0    0.0   0.0   0.0   0.0   10000 
Thu 22:30   SE  9/ 13  21.8  9.7  1016.3    0.0   0.0   0.0   0.0   10000 
Thu 23:00  ESE 11/ 17  22.4 10.2  1016.2    0.0   0.0   0.0   0.0   10000 
Thu 23:30  ESE 20/ 32  21.7 12.5  1016.3    0.0   0.0   0.0   0.0   10000 

NULLO MOUNTAIN AWS

Site: 062100
Alt: 1130.0m
62km ESE of MUDGEE


  Time     Wind        Temp  DP   Baro     Rain since   Rain past  Vis(m), Cloud(base in m), Weather
  local        km/h                         9am  last   hr   10m    
Thu 18:00  ESE 13/ 20  20.2  7.6  ------    0.0   0.0   0.0   0.0   ----- 
Thu 18:30  ESE 17/ 24  19.2  7.9  ------    0.0   0.0   0.0   0.0   ----- 
Thu 19:00  ESE 17/ 26  18.2  8.5  ------    0.0   0.0   0.0   0.0   ----- 
Thu 19:30  ESE 15/ 24  17.8  8.9  ------    0.0   0.0   0.0   0.0   ----- 
Thu 20:30    E 17/ 22  16.7 10.3  ------    0.0   0.0   0.0   0.0   ----- 
Thu 21:00    E 13/ 17  16.2 10.7  ------    0.0   0.0  ----   0.0   ----- 
Thu 21:30    E 19/ 22  15.6 11.2  ------    0.0   0.0   0.0   0.0   ----- 
Thu 22:00  ESE 15/ 22  15.1 11.5  ------    0.0   0.0   0.0   0.0   ----- 
Thu 22:30  ESE 17/ 28  14.6 11.4  ------    0.0   0.0   0.0   0.0   ----- 
Thu 23:00  ESE 15/ 22  14.1 11.4  ------    0.0   0.0   0.0   0.0   ----- 
Thu 23:30  ESE 19/ 26  13.8 11.5  ------    0.0   0.0   0.0   0.0   -----